Time;durP1;ratioP1;P1;durP2;ratioP2;P2;SDS_P1;SDS_P2;PMS_P1;PMS_P2;Temp;Humidity;BMP_temperature;BMP_pressure;BME280_temperature;BME280_humidity;BME280_pressure;Samples;Min_cycle;Max_cycle;Signal;HPM_P1;HPM_P2
2021/05/21 00:00:22;;;;;;;3.95;1.50;;;;;;;;;;5048791;28;20017;-81
2021/05/21 00:02:48;;;;;;;5.95;1.80;;;;;;;;;;5056015;28;20032;-80
2021/05/21 00:05:13;;;;;;;3.20;1.52;;;;;;;;;;5064238;28;20026;-81
2021/05/21 00:07:38;;;;;;;1.55;0.80;;;;;;;;;;5065405;28;20021;-81
2021/05/21 00:10:04;;;;;;;3.40;1.17;;;;;;;;;;5056023;28;20520;-82
2021/05/21 00:12:29;;;;;;;2.65;1.30;;;;;;;;;;5047620;28;20032;-82
2021/05/21 00:14:54;;;;;;;1.52;0.93;;;;;;;;;;5063440;28;20035;-83
2021/05/21 00:17:19;;;;;;;1.67;0.88;;;;;;;;;;5045081;28;20048;-83
2021/05/21 00:19:44;;;;;;;2.35;0.98;;;;;;;;;;5055486;28;20384;-82
2021/05/21 00:22:10;;;;;;;2.08;1.05;;;;;;;;;;5050845;28;20033;-82
2021/05/21 00:24:35;;;;;;;2.00;1.02;;;;;;;;;;5049963;28;20398;-82
2021/05/21 00:27:00;;;;;;;4.35;0.93;;;;;;;;;;5054913;28;20029;-82
2021/05/21 00:29:25;;;;;;;1.23;0.90;;;;;;;;;;5051307;28;20028;-81
2021/05/21 00:31:50;;;;;;;3.88;1.00;;;;;;;;;;5051408;28;20051;-81
2021/05/21 00:34:16;;;;;;;1.48;1.00;;;;;;;;;;5051408;28;20041;-81
2021/05/21 00:36:41;;;;;;;1.17;0.80;;;;;;;;;;5052171;28;20472;-82
2021/05/21 00:39:06;;;;;;;1.52;0.90;;;;;;;;;;5061015;28;20016;-83
2021/05/21 00:41:31;;;;;;;1.52;0.90;;;;;;;;;;5049778;28;20027;-82
2021/05/21 00:43:57;;;;;;;2.22;1.00;;;;;;;;;;5058441;28;20063;-83
2021/05/21 00:46:22;;;;;;;3.20;1.10;;;;;;;;;;5056786;28;20047;-82
2021/05/21 00:48:47;;;;;;;3.40;1.30;;;;;;;;;;5055512;28;20036;-81
2021/05/21 00:51:12;;;;;;;2.88;0.90;;;;;;;;;;5066678;28;20475;-81
2021/05/21 00:53:38;;;;;;;1.65;0.98;;;;;;;;;;5062002;28;20037;-82
2021/05/21 00:56:03;;;;;;;1.70;0.80;;;;;;;;;;5041516;28;20099;-81
2021/05/21 00:58:30;;;;;;;1.80;1.10;;;;;;;;;;5072441;28;20363;-83
2021/05/21 01:00:55;;;;;;;0.85;0.63;;;;;;;;;;5059658;28;20021;-84
2021/05/21 01:03:21;;;;;;;0.93;0.77;;;;;;;;;;5066170;28;20028;-82
2021/05/21 01:05:46;;;;;;;1.90;0.90;;;;;;;;;;5063736;28;20380;-83
2021/05/21 01:08:11;;;;;;;0.95;0.60;;;;;;;;;;5054354;28;20483;-82
2021/05/21 01:10:36;;;;;;;1.90;0.80;;;;;;;;;;5060540;28;20478;-83
2021/05/21 01:13:02;;;;;;;2.13;0.80;;;;;;;;;;5052875;28;20132;-81
2021/05/21 01:15:27;;;;;;;1.40;0.70;;;;;;;;;;5061860;28;20106;-81
2021/05/21 01:17:52;;;;;;;2.00;0.90;;;;;;;;;;5057225;28;20562;-81
2021/05/21 01:20:17;;;;;;;1.77;0.80;;;;;;;;;;5036795;28;20032;-82
2021/05/21 01:22:43;;;;;;;1.60;0.90;;;;;;;;;;5051840;28;20518;-83
2021/05/21 01:25:09;;;;;;;2.38;0.75;;;;;;;;;;5059695;28;20017;-81
2021/05/21 01:27:34;;;;;;;1.23;0.60;;;;;;;;;;5058173;28;20036;-82
2021/05/21 01:30:00;;;;;;;2.10;1.02;;;;;;;;;;5081859;28;20085;-82
2021/05/21 01:32:25;;;;;;;0.75;0.70;;;;;;;;;;5066520;28;20476;-83
2021/05/21 01:34:50;;;;;;;1.45;0.75;;;;;;;;;;5065363;28;20746;-82
2021/05/21 01:37:17;;;;;;;2.05;1.02;;;;;;;;;;5051167;28;20041;-83
2021/05/21 01:39:42;;;;;;;1.40;0.90;;;;;;;;;;5052726;28;20063;-80
2021/05/21 01:42:09;;;;;;;1.08;0.65;;;;;;;;;;5058377;28;20040;-83
2021/05/21 01:44:34;;;;;;;1.73;1.00;;;;;;;;;;5055268;28;20029;-82
2021/05/21 01:47:00;;;;;;;2.83;1.15;;;;;;;;;;5066189;28;20035;-82
2021/05/21 01:49:25;;;;;;;2.60;0.90;;;;;;;;;;5053460;28;20498;-81
2021/05/21 01:51:56;;;;;;;1.55;0.90;;;;;;;;;;5056119;28;20055;-82
2021/05/21 01:54:23;;;;;;;1.60;1.08;;;;;;;;;;5052539;28;20032;-82
2021/05/21 01:56:51;;;;;;;2.80;1.02;;;;;;;;;;5064829;28;20078;-81
2021/05/21 01:59:16;;;;;;;1.70;1.00;;;;;;;;;;5064167;28;20047;-82
2021/05/21 02:01:42;;;;;;;4.35;0.90;;;;;;;;;;5052885;28;20025;-81
2021/05/21 02:04:07;;;;;;;1.25;0.90;;;;;;;;;;5052000;28;20353;-81
2021/05/21 02:06:35;;;;;;;4.35;0.98;;;;;;;;;;5037100;28;20032;-83
2021/05/21 02:09:01;;;;;;;2.95;0.73;;;;;;;;;;5066015;28;20044;-80
2021/05/21 02:11:26;;;;;;;1.25;0.73;;;;;;;;;;5055084;28;20361;-81
2021/05/21 02:13:51;;;;;;;1.33;0.75;;;;;;;;;;5051142;28;20487;-80
2021/05/21 02:16:16;;;;;;;2.00;0.80;;;;;;;;;;5040282;28;20041;-82
2021/05/21 02:18:43;;;;;;;2.40;0.75;;;;;;;;;;5061537;28;20487;-82
2021/05/21 02:21:08;;;;;;;1.90;0.57;;;;;;;;;;5052838;28;20574;-81
2021/05/21 02:23:33;;;;;;;0.98;0.70;;;;;;;;;;5057098;28;20068;-80
2021/05/21 02:25:58;;;;;;;1.02;0.70;;;;;;;;;;5058999;28;20017;-81
2021/05/21 02:28:24;;;;;;;1.38;0.70;;;;;;;;;;5059938;28;20035;-82
2021/05/21 02:30:49;;;;;;;1.30;0.70;;;;;;;;;;5064542;28;20048;-82
2021/05/21 02:33:14;;;;;;;2.50;1.00;;;;;;;;;;5064649;28;20045;-82
2021/05/21 02:35:39;;;;;;;1.48;0.90;;;;;;;;;;5065613;28;20028;-84
2021/05/21 02:38:04;;;;;;;1.38;0.73;;;;;;;;;;5056296;28;20021;-81
2021/05/21 02:40:30;;;;;;;2.55;0.70;;;;;;;;;;5062984;28;20088;-81
2021/05/21 02:42:57;;;;;;;1.38;0.65;;;;;;;;;;5032146;28;20072;-83
2021/05/21 02:45:22;;;;;;;1.38;0.77;;;;;;;;;;5051465;28;20021;-80
2021/05/21 02:47:47;;;;;;;1.30;0.88;;;;;;;;;;5059003;28;20033;-82
2021/05/21 02:50:12;;;;;;;1.13;0.60;;;;;;;;;;5055539;28;20017;-81
2021/05/21 02:52:37;;;;;;;0.98;0.70;;;;;;;;;;5037331;28;20029;-82
2021/05/21 02:55:03;;;;;;;0.43;0.40;;;;;;;;;;5053468;28;20044;-82
2021/05/21 02:57:29;;;;;;;1.10;0.60;;;;;;;;;;5057187;28;20040;-82
2021/05/21 02:59:55;;;;;;;0.82;0.60;;;;;;;;;;5059981;28;20028;-82
2021/05/21 03:02:20;;;;;;;0.90;0.60;;;;;;;;;;5056169;28;20388;-82
2021/05/21 03:04:46;;;;;;;1.92;0.68;;;;;;;;;;5046941;28;20518;-82
2021/05/21 03:07:11;;;;;;;1.02;0.63;;;;;;;;;;5053381;28;20020;-83
2021/05/21 03:09:36;;;;;;;1.27;0.70;;;;;;;;;;5058343;28;20099;-84
2021/05/21 03:12:01;;;;;;;0.82;0.55;;;;;;;;;;5057223;28;20136;-82
2021/05/21 03:14:26;;;;;;;0.73;0.50;;;;;;;;;;5053569;28;20136;-82
2021/05/21 03:16:52;;;;;;;0.95;0.68;;;;;;;;;;5051600;28;20072;-81
2021/05/21 03:19:17;;;;;;;0.73;0.50;;;;;;;;;;5050473;28;20032;-83
2021/05/21 03:21:42;;;;;;;1.20;0.73;;;;;;;;;;5032298;28;20140;-83
2021/05/21 03:24:08;;;;;;;1.98;0.90;;;;;;;;;;5053057;28;20017;-85
2021/05/21 03:26:33;;;;;;;1.33;0.68;;;;;;;;;;5056949;28;20262;-82
2021/05/21 03:28:58;;;;;;;2.50;1.02;;;;;;;;;;5050397;28;20085;-81
2021/05/21 03:31:23;;;;;;;1.35;0.70;;;;;;;;;;5059239;28;20680;-82
2021/05/21 03:33:50;;;;;;;2.28;1.23;;;;;;;;;;5057375;28;20037;-82
2021/05/21 03:36:15;;;;;;;1.88;1.13;;;;;;;;;;5050211;28;20021;-81
2021/05/21 03:38:40;;;;;;;2.72;1.10;;;;;;;;;;5057351;28;20479;-80
2021/05/21 03:41:06;;;;;;;1.83;0.88;;;;;;;;;;5062007;28;20055;-82
2021/05/21 03:43:32;;;;;;;2.10;1.02;;;;;;;;;;5050290;28;20390;-80
2021/05/21 03:45:58;;;;;;;2.38;1.40;;;;;;;;;;5052149;28;20032;-81
2021/05/21 03:48:23;;;;;;;2.47;0.90;;;;;;;;;;5052259;28;20021;-83
2021/05/21 03:50:48;;;;;;;2.90;1.13;;;;;;;;;;5057054;28;20016;-82
2021/05/21 03:53:15;;;;;;;2.67;1.15;;;;;;;;;;5049746;28;20404;-82
2021/05/21 03:55:40;;;;;;;1.70;0.90;;;;;;;;;;5047037;28;20022;-81
2021/05/21 03:58:05;;;;;;;1.60;0.70;;;;;;;;;;5050966;28;20039;-82
2021/05/21 04:00:30;;;;;;;2.90;0.90;;;;;;;;;;5054684;28;21502;-83
2021/05/21 04:02:55;;;;;;;0.98;0.63;;;;;;;;;;5063599;28;20415;-84
2021/05/21 04:05:21;;;;;;;1.95;0.73;;;;;;;;;;5032383;28;20048;-80
2021/05/21 04:07:47;;;;;;;1.33;0.85;;;;;;;;;;5050686;28;20120;-80
2021/05/21 04:10:12;;;;;;;2.55;0.93;;;;;;;;;;5050851;28;20021;-81
2021/05/21 04:12:37;;;;;;;2.13;0.90;;;;;;;;;;5057703;28;20028;-81
2021/05/21 04:15:03;;;;;;;1.77;1.08;;;;;;;;;;5050935;28;20141;-83
2021/05/21 04:17:28;;;;;;;1.10;0.80;;;;;;;;;;5057460;28;20070;-81
2021/05/21 04:19:53;;;;;;;1.65;0.65;;;;;;;;;;5070312;28;20032;-82
2021/05/21 04:22:18;;;;;;;2.05;0.77;;;;;;;;;;5056477;28;20037;-81
2021/05/21 04:24:44;;;;;;;1.75;1.05;;;;;;;;;;5063807;28;20380;-80
2021/05/21 04:27:09;;;;;;;2.08;0.85;;;;;;;;;;5054466;28;20563;-83
2021/05/21 04:29:34;;;;;;;1.55;0.80;;;;;;;;;;5058490;28;20021;-81
2021/05/21 04:32:01;;;;;;;2.67;0.73;;;;;;;;;;5053388;28;20087;-80
2021/05/21 04:34:26;;;;;;;1.92;0.90;;;;;;;;;;5050727;28;20427;-82
2021/05/21 04:36:52;;;;;;;0.80;0.66;;;;;;;;;;5056615;28;20033;-82
2021/05/21 04:39:17;;;;;;;1.40;0.75;;;;;;;;;;5050872;28;20048;-83
2021/05/21 04:41:42;;;;;;;1.60;0.70;;;;;;;;;;5062015;28;20029;-82
2021/05/21 04:44:07;;;;;;;1.75;0.73;;;;;;;;;;5061034;28;20017;-84
2021/05/21 04:46:32;;;;;;;2.13;0.93;;;;;;;;;;5050187;28;20395;-84
2021/05/21 04:48:58;;;;;;;8.10;1.08;;;;;;;;;;5049624;28;20025;-84
2021/05/21 04:51:23;;;;;;;1.58;0.68;;;;;;;;;;5063367;28;20163;-82
2021/05/21 04:53:48;;;;;;;1.98;0.80;;;;;;;;;;5052980;28;20025;-83
2021/05/21 04:56:13;;;;;;;2.80;1.00;;;;;;;;;;5055639;28;20423;-81
2021/05/21 04:58:39;;;;;;;2.22;1.10;;;;;;;;;;5051185;28;20032;-82
2021/05/21 05:01:04;;;;;;;1.95;0.70;;;;;;;;;;5054763;28;20017;-82
2021/05/21 05:03:29;;;;;;;1.85;0.60;;;;;;;;;;5049695;28;20112;-83
2021/05/21 05:05:55;;;;;;;1.60;0.80;;;;;;;;;;5049615;28;20017;-85
2021/05/21 05:08:21;;;;;;;2.50;1.35;;;;;;;;;;5054931;28;20360;-83
2021/05/21 05:10:48;;;;;;;4.65;1.02;;;;;;;;;;5054053;28;20028;-82
2021/05/21 05:13:13;;;;;;;2.30;0.93;;;;;;;;;;5061007;28;20032;-82
2021/05/21 05:15:38;;;;;;;3.63;1.17;;;;;;;;;;5051139;28;20100;-83
2021/05/21 05:18:05;;;;;;;1.83;0.80;;;;;;;;;;5041880;28;20024;-79
2021/05/21 05:20:30;;;;;;;3.70;1.10;;;;;;;;;;5043726;28;20104;-79
2021/05/21 05:22:56;;;;;;;3.63;1.33;;;;;;;;;;5036894;28;20105;-79
2021/05/21 05:25:21;;;;;;;3.10;1.25;;;;;;;;;;5043486;28;20477;-80
2021/05/21 05:27:47;;;;;;;4.72;1.40;;;;;;;;;;5041134;28;20036;-80
2021/05/21 05:30:12;;;;;;;3.50;1.70;;;;;;;;;;5043501;28;20428;-80
2021/05/21 05:32:38;;;;;;;5.00;1.20;;;;;;;;;;5044120;28;20124;-79
2021/05/21 05:35:04;;;;;;;3.13;1.20;;;;;;;;;;5042599;28;20027;-81
2021/05/21 05:37:29;;;;;;;4.82;1.67;;;;;;;;;;5045020;28;20113;-79
2021/05/21 05:39:54;;;;;;;3.05;1.10;;;;;;;;;;5058307;28;20100;-80
2021/05/21 05:42:19;;;;;;;3.83;1.20;;;;;;;;;;5052560;28;20526;-81
2021/05/21 05:44:45;;;;;;;4.88;1.02;;;;;;;;;;5052878;28;20075;-79
2021/05/21 05:47:10;;;;;;;4.78;1.15;;;;;;;;;;5063446;28;20029;-79
2021/05/21 05:49:35;;;;;;;3.13;0.88;;;;;;;;;;5053795;28;20100;-80
2021/05/21 05:52:00;;;;;;;3.10;0.90;;;;;;;;;;5052767;28;20082;-80
2021/05/21 05:54:28;;;;;;;3.22;0.80;;;;;;;;;;5045688;28;20749;-79
2021/05/21 05:56:53;;;;;;;2.65;0.80;;;;;;;;;;5043872;28;20075;-79
2021/05/21 05:59:19;;;;;;;2.30;0.60;;;;;;;;;;5047844;28;20029;-78
2021/05/21 06:01:44;;;;;;;2.85;0.75;;;;;;;;;;5043102;28;20052;-80
2021/05/21 06:04:09;;;;;;;2.08;0.80;;;;;;;;;;5049305;28;20054;-79
2021/05/21 06:06:34;;;;;;;2.45;0.80;;;;;;;;;;5068112;28;20017;-79
2021/05/21 06:08:59;;;;;;;2.30;0.40;;;;;;;;;;5051046;28;20037;-79
2021/05/21 06:11:25;;;;;;;2.83;0.63;;;;;;;;;;5051121;28;20021;-80
2021/05/21 06:13:50;;;;;;;2.28;0.63;;;;;;;;;;5060928;28;20028;-81
2021/05/21 06:16:15;;;;;;;2.65;0.60;;;;;;;;;;5064945;28;20122;-81
2021/05/21 06:18:41;;;;;;;2.92;0.70;;;;;;;;;;5053731;28;20081;-80
2021/05/21 06:21:06;;;;;;;1.77;0.70;;;;;;;;;;5059333;28;20480;-81
2021/05/21 06:23:31;;;;;;;0.88;0.50;;;;;;;;;;5050891;28;20131;-79
2021/05/21 06:26:12;;;;;;;2.67;0.70;;;;;;;;;;5040175;28;20399;-80
2021/05/21 06:28:37;;;;;;;2.92;0.50;;;;;;;;;;5054847;28;20135;-78
2021/05/21 06:31:02;;;;;;;1.63;0.60;;;;;;;;;;5051523;28;20123;-79
2021/05/21 06:33:27;;;;;;;1.10;0.43;;;;;;;;;;5062538;28;20091;-80
2021/05/21 06:35:53;;;;;;;1.50;0.65;;;;;;;;;;5059262;28;20127;-78
2021/05/21 06:38:19;;;;;;;4.75;1.10;;;;;;;;;;5062902;28;20448;-81
2021/05/21 06:40:44;;;;;;;2.15;0.70;;;;;;;;;;5057209;28;20028;-80
2021/05/21 06:43:10;;;;;;;3.05;0.50;;;;;;;;;;5051631;28;20375;-80
2021/05/21 06:45:36;;;;;;;1.58;0.60;;;;;;;;;;5050155;28;20017;-79
2021/05/21 06:48:01;;;;;;;4.97;0.80;;;;;;;;;;5056165;28;20029;-79
2021/05/21 06:50:27;;;;;;;1.15;0.60;;;;;;;;;;5057480;28;20422;-80
2021/05/21 06:52:52;;;;;;;2.22;0.68;;;;;;;;;;5056581;28;20103;-80
2021/05/21 06:55:17;;;;;;;1.63;0.73;;;;;;;;;;5061317;28;20028;-80
2021/05/21 06:57:42;;;;;;;1.88;0.70;;;;;;;;;;5063586;28;20036;-80
2021/05/21 07:00:08;;;;;;;2.47;0.60;;;;;;;;;;5054836;28;20581;-79
2021/05/21 07:02:33;;;;;;;1.25;0.60;;;;;;;;;;5036623;28;20048;-79
2021/05/21 07:04:58;;;;;;;2.13;0.80;;;;;;;;;;5050648;28;20372;-79
2021/05/21 07:07:25;;;;;;;1.42;0.85;;;;;;;;;;5055499;28;20276;-79
2021/05/21 07:09:50;;;;;;;1.73;0.60;;;;;;;;;;5051048;28;20519;-80
2021/05/21 07:12:15;;;;;;;2.05;0.60;;;;;;;;;;5052454;28;20032;-80
2021/05/21 07:14:41;;;;;;;1.88;0.73;;;;;;;;;;5050267;28;20025;-79
2021/05/21 07:17:06;;;;;;;2.33;0.50;;;;;;;;;;5056042;28;20522;-80
2021/05/21 07:19:31;;;;;;;7.03;0.88;;;;;;;;;;5054571;28;20189;-80
2021/05/21 07:21:57;;;;;;;2.97;0.83;;;;;;;;;;5067149;28;20017;-80
2021/05/21 07:24:22;;;;;;;2.50;0.80;;;;;;;;;;5058789;28;20352;-80
2021/05/21 07:26:47;;;;;;;2.70;0.67;;;;;;;;;;5058143;28;20278;-80
2021/05/21 07:29:12;;;;;;;2.13;0.50;;;;;;;;;;5060414;28;20829;-81
2021/05/21 07:31:37;;;;;;;1.53;0.50;;;;;;;;;;5057591;28;20629;-82
2021/05/21 07:34:03;;;;;;;1.45;0.60;;;;;;;;;;5056216;28;20299;-82
2021/05/21 07:36:30;;;;;;;3.97;0.70;;;;;;;;;;5063526;28;20280;-80
2021/05/21 07:38:56;;;;;;;2.03;0.50;;;;;;;;;;5063588;28;20033;-82
2021/05/21 07:41:23;;;;;;;1.10;0.40;;;;;;;;;;5059693;28;20078;-78
2021/05/21 07:43:49;;;;;;;1.60;0.60;;;;;;;;;;5050483;28;20025;-76
2021/05/21 07:46:14;;;;;;;0.85;0.50;;;;;;;;;;5057816;28;20016;-74
2021/05/21 07:48:40;;;;;;;1.40;0.50;;;;;;;;;;5054418;28;20036;-75
2021/05/21 07:51:05;;;;;;;0.95;0.50;;;;;;;;;;5060152;28;20034;-73
2021/05/21 07:53:32;;;;;;;0.32;0.32;;;;;;;;;;5053126;28;20039;-75
2021/05/21 07:55:58;;;;;;;0.55;0.30;;;;;;;;;;5051796;28;20032;-75
2021/05/21 07:58:23;;;;;;;2.15;0.40;;;;;;;;;;5062517;28;20403;-75
2021/05/21 08:00:49;;;;;;;0.50;0.40;;;;;;;;;;5054900;28;20103;-76
2021/05/21 08:03:15;;;;;;;0.80;0.30;;;;;;;;;;5056784;28;20377;-74
2021/05/21 08:05:40;;;;;;;0.90;0.50;;;;;;;;;;5059164;28;20047;-75
2021/05/21 08:08:06;;;;;;;1.52;0.43;;;;;;;;;;5027465;28;20037;-75
2021/05/21 08:10:31;;;;;;;1.85;0.50;;;;;;;;;;5049461;28;20380;-75
2021/05/21 08:12:56;;;;;;;0.50;0.32;;;;;;;;;;5062767;28;20031;-75
2021/05/21 08:15:21;;;;;;;1.17;0.50;;;;;;;;;;5054701;28;20057;-75
2021/05/21 08:17:46;;;;;;;2.55;0.40;;;;;;;;;;5058133;28;20291;-75
2021/05/21 08:20:12;;;;;;;1.27;0.60;;;;;;;;;;5049129;28;20032;-76
2021/05/21 08:22:37;;;;;;;0.70;0.40;;;;;;;;;;5048911;28;20517;-75
2021/05/21 08:25:04;;;;;;;1.00;0.52;;;;;;;;;;5045967;28;20025;-76
2021/05/21 08:27:30;;;;;;;0.52;0.40;;;;;;;;;;5031200;28;20490;-75
2021/05/21 08:29:55;;;;;;;1.40;0.40;;;;;;;;;;5061244;28;20036;-75
2021/05/21 08:32:20;;;;;;;3.60;0.50;;;;;;;;;;5050016;28;20056;-74
2021/05/21 08:34:46;;;;;;;0.73;0.50;;;;;;;;;;5048141;28;20025;-75
2021/05/21 08:37:11;;;;;;;1.00;0.50;;;;;;;;;;5058043;28;20403;-74
2021/05/21 08:39:38;;;;;;;1.80;0.60;;;;;;;;;;5054768;28;20342;-74
2021/05/21 08:42:06;;;;;;;0.90;0.40;;;;;;;;;;5064787;28;20272;-75
2021/05/21 08:44:32;;;;;;;1.73;0.40;;;;;;;;;;5052423;28;20466;-74
2021/05/21 08:46:59;;;;;;;0.90;0.47;;;;;;;;;;5049601;28;20017;-75
2021/05/21 08:49:24;;;;;;;0.80;0.40;;;;;;;;;;5051500;28;20025;-75
2021/05/21 08:51:49;;;;;;;1.08;0.55;;;;;;;;;;5047641;28;20078;-76
2021/05/21 08:54:14;;;;;;;2.13;0.43;;;;;;;;;;5050023;28;20024;-76
2021/05/21 08:56:42;;;;;;;1.15;0.57;;;;;;;;;;5023773;28;20642;-76
2021/05/21 08:59:07;;;;;;;2.38;0.85;;;;;;;;;;5045757;28;20063;-75
2021/05/21 09:01:32;;;;;;;1.30;0.50;;;;;;;;;;5050354;28;20021;-76
2021/05/21 09:04:01;;;;;;;1.43;0.50;;;;;;;;;;5051786;28;20283;-76
2021/05/21 09:06:28;;;;;;;1.60;0.50;;;;;;;;;;5048338;28;20687;-74
2021/05/21 09:08:57;;;;;;;1.27;0.60;;;;;;;;;;5031938;28;20464;-76
2021/05/21 09:11:33;;;;;;;0.77;0.50;;;;;;;;;;5069904;28;20594;-76
2021/05/21 09:14:00;;;;;;;1.30;0.40;;;;;;;;;;5048894;28;20029;-75
2021/05/21 09:16:26;;;;;;;2.80;0.40;;;;;;;;;;5054947;28;20503;-75
2021/05/21 09:19:00;;;;;;;1.02;0.50;;;;;;;;;;5063320;28;20124;-75
2021/05/21 09:21:26;;;;;;;1.33;0.50;;;;;;;;;;5061638;28;20498;-75
2021/05/21 09:24:01;;;;;;;2.38;0.47;;;;;;;;;;5058196;28;20033;-76
2021/05/21 09:26:38;;;;;;;2.70;0.50;;;;;;;;;;5052335;28;20048;-75
2021/05/21 09:29:03;;;;;;;0.40;0.35;;;;;;;;;;5052443;28;20137;-75
2021/05/21 09:31:29;;;;;;;2.72;0.60;;;;;;;;;;5059902;28;20535;-75
2021/05/21 09:33:54;;;;;;;0.93;0.32;;;;;;;;;;5051705;28;20156;-75
2021/05/21 09:36:35;;;;;;;1.08;0.30;;;;;;;;;;5069261;28;20028;-75
2021/05/21 09:39:00;;;;;;;1.02;0.40;;;;;;;;;;5071102;28;20028;-75
2021/05/21 09:41:26;;;;;;;2.70;0.40;;;;;;;;;;5071730;28;20120;-75
2021/05/21 09:43:51;;;;;;;1.92;0.50;;;;;;;;;;5066625;28;20048;-75
2021/05/21 09:46:16;;;;;;;0.88;0.50;;;;;;;;;;5062981;28;20349;-75
2021/05/21 09:48:41;;;;;;;0.73;0.32;;;;;;;;;;5067149;28;20408;-75
2021/05/21 09:51:07;;;;;;;1.55;0.40;;;;;;;;;;5055441;28;20021;-74
2021/05/21 09:53:35;;;;;;;1.45;0.40;;;;;;;;;;5051808;28;20032;-74
2021/05/21 09:56:01;;;;;;;1.08;0.40;;;;;;;;;;5054384;28;20055;-74
2021/05/21 09:58:31;;;;;;;3.47;0.60;;;;;;;;;;5051736;28;20040;-75
2021/05/21 10:01:03;;;;;;;2.55;0.70;;;;;;;;;;5051709;28;20021;-75
2021/05/21 10:03:29;;;;;;;0.57;0.30;;;;;;;;;;5055143;28;20425;-75
2021/05/21 10:05:54;;;;;;;1.83;0.47;;;;;;;;;;5061037;28;20029;-75
2021/05/21 10:08:22;;;;;;;1.08;0.40;;;;;;;;;;5050867;28;20013;-74
2021/05/21 10:10:47;;;;;;;1.75;0.40;;;;;;;;;;5054276;28;20464;-76
2021/05/21 10:13:12;;;;;;;1.85;0.60;;;;;;;;;;5067876;28;20028;-75
2021/05/21 10:15:37;;;;;;;4.32;0.90;;;;;;;;;;5051373;28;20029;-74
2021/05/21 10:18:03;;;;;;;1.50;0.40;;;;;;;;;;5059596;28;20059;-74
2021/05/21 10:20:28;;;;;;;0.68;0.43;;;;;;;;;;5069551;28;20035;-74
2021/05/21 10:22:53;;;;;;;0.93;0.50;;;;;;;;;;5052605;28;20024;-75
2021/05/21 10:25:26;;;;;;;1.02;0.50;;;;;;;;;;5065538;28;20028;-74
2021/05/21 10:27:53;;;;;;;0.80;0.40;;;;;;;;;;5051626;28;20036;-75
2021/05/21 10:30:20;;;;;;;1.25;0.52;;;;;;;;;;5052666;28;20021;-75
2021/05/21 10:32:45;;;;;;;1.38;0.60;;;;;;;;;;5055977;28;20052;-73
2021/05/21 10:35:15;;;;;;;1.55;0.50;;;;;;;;;;5058545;28;20371;-75
2021/05/21 10:37:40;;;;;;;0.55;0.50;;;;;;;;;;5061201;28;20106;-75
2021/05/21 10:40:10;;;;;;;1.42;0.50;;;;;;;;;;5057657;28;20024;-75
2021/05/21 10:42:35;;;;;;;;;;;;;;;;;;5051631;28;20025;-74
2021/05/21 10:45:14;;;;;;;0.77;0.47;;;;;;;;;;5032898;28;19905;-74
2021/05/21 10:47:40;;;;;;;1.08;0.40;;;;;;;;;;5057297;28;20041;-74
2021/05/21 10:50:06;;;;;;;2.65;0.50;;;;;;;;;;5056976;28;20150;-75
2021/05/21 10:52:50;;;;;;;0.52;0.32;;;;;;;;;;5051924;28;20049;-74
2021/05/21 10:55:15;;;;;;;1.35;0.40;;;;;;;;;;5039405;28;20164;-74
2021/05/21 10:57:42;;;;;;;3.60;0.82;;;;;;;;;;5050807;28;20119;-75
2021/05/21 11:00:08;;;;;;;0.77;0.50;;;;;;;;;;5050925;28;20052;-74
2021/05/21 11:02:45;;;;;;;2.88;0.52;;;;;;;;;;5056986;28;20647;-75
2021/05/21 11:05:32;;;;;;;0.95;0.40;;;;;;;;;;5042806;28;20091;-74
2021/05/21 11:07:58;;;;;;;2.45;0.57;;;;;;;;;;5045215;28;20040;-74
2021/05/21 11:10:43;;;;;;;0.85;0.60;;;;;;;;;;5050587;28;20070;-74
2021/05/21 11:13:11;;;;;;;1.10;0.70;;;;;;;;;;5050957;28;20040;-75
2021/05/21 11:15:36;;;;;;;1.73;0.82;;;;;;;;;;5050316;28;20062;-74
2021/05/21 11:18:12;;;;;;;1.13;0.77;;;;;;;;;;5050295;28;20037;-74
2021/05/21 11:20:55;;;;;;;1.20;0.73;;;;;;;;;;5050081;28;20021;-75
2021/05/21 11:23:25;;;;;;;2.83;0.70;;;;;;;;;;5049928;28;20398;-74
2021/05/21 11:26:00;;;;;;;1.85;0.70;;;;;;;;;;5049949;28;20025;-74
2021/05/21 11:28:26;;;;;;;2.20;1.00;;;;;;;;;;5055272;28;20063;-75
2021/05/21 11:30:52;;;;;;;1.50;0.80;;;;;;;;;;5061059;28;20024;-74
2021/05/21 11:33:19;;;;;;;0.65;0.60;;;;;;;;;;5035771;28;20411;-74
2021/05/21 11:35:45;;;;;;;3.15;0.90;;;;;;;;;;5057602;28;20017;-74
2021/05/21 11:38:10;;;;;;;2.08;1.10;;;;;;;;;;5060700;28;20038;-75
2021/05/21 11:40:35;;;;;;;1.77;0.80;;;;;;;;;;5064565;28;20048;-74
2021/05/21 11:43:01;;;;;;;2.97;0.90;;;;;;;;;;5059962;28;20369;-75
2021/05/21 11:45:27;;;;;;;1.88;0.90;;;;;;;;;;5069043;28;20265;-76
2021/05/21 11:47:54;;;;;;;1.35;0.90;;;;;;;;;;5062762;28;20108;-74
2021/05/21 11:50:26;;;;;;;0.95;0.68;;;;;;;;;;5061124;28;20081;-74
2021/05/21 11:52:51;;;;;;;3.78;1.17;;;;;;;;;;5059491;28;20044;-73
2021/05/21 11:55:16;;;;;;;2.33;0.70;;;;;;;;;;5057190;28;20380;-75
2021/05/21 11:57:41;;;;;;;1.37;0.70;;;;;;;;;;5059288;28;20048;-76
2021/05/21 12:00:07;;;;;;;0.77;0.57;;;;;;;;;;5059474;28;20614;-75
2021/05/21 12:02:32;;;;;;;1.15;0.70;;;;;;;;;;5056800;28;20043;-74
2021/05/21 12:04:57;;;;;;;1.83;0.70;;;;;;;;;;5061294;28;20017;-74
2021/05/21 12:07:22;;;;;;;4.70;0.90;;;;;;;;;;5056233;28;20461;-75
2021/05/21 12:09:54;;;;;;;1.27;0.70;;;;;;;;;;5031603;28;20009;-73
2021/05/21 12:12:20;;;;;;;1.58;0.52;;;;;;;;;;5056511;28;20283;-75
2021/05/21 12:14:45;;;;;;;1.70;0.73;;;;;;;;;;5054003;28;20049;-74
2021/05/21 12:17:10;;;;;;;1.63;0.85;;;;;;;;;;5047866;28;20045;-74
2021/05/21 12:19:40;;;;;;;2.88;0.75;;;;;;;;;;5047425;28;20751;-75
2021/05/21 12:22:06;;;;;;;0.60;0.55;;;;;;;;;;5056670;28;20044;-74
2021/05/21 12:24:31;;;;;;;2.40;0.68;;;;;;;;;;5056305;28;20021;-74
2021/05/21 12:26:56;;;;;;;1.65;0.80;;;;;;;;;;5037378;28;20082;-76
2021/05/21 12:29:22;;;;;;;2.20;0.88;;;;;;;;;;5048745;28;20090;-76
2021/05/21 12:31:56;;;;;;;2.53;0.70;;;;;;;;;;5042272;28;20108;-74
2021/05/21 12:34:21;;;;;;;1.50;0.70;;;;;;;;;;5042500;28;20040;-73
2021/05/21 12:36:56;;;;;;;1.27;0.63;;;;;;;;;;5067770;28;20107;-74
2021/05/21 12:39:28;;;;;;;1.70;0.63;;;;;;;;;;5049214;28;20051;-73
2021/05/21 12:41:54;;;;;;;1.10;0.70;;;;;;;;;;5049473;28;20511;-74
2021/05/21 12:44:20;;;;;;;0.43;0.40;;;;;;;;;;5061514;28;20024;-73
2021/05/21 12:46:45;;;;;;;1.55;0.63;;;;;;;;;;5054900;28;20376;-73
2021/05/21 12:49:10;;;;;;;0.82;0.55;;;;;;;;;;5058506;28;20032;-73
2021/05/21 12:51:35;;;;;;;0.77;0.52;;;;;;;;;;5051915;28;20268;-74
2021/05/21 12:54:20;;;;;;;2.70;0.55;;;;;;;;;;5050188;28;20025;-74
2021/05/21 12:56:54;;;;;;;0.40;0.40;;;;;;;;;;5047968;28;20124;-74
2021/05/21 12:59:19;;;;;;;0.68;0.55;;;;;;;;;;5062026;28;20400;-75
2021/05/21 13:01:45;;;;;;;0.52;0.45;;;;;;;;;;5051265;28;20021;-75
2021/05/21 13:04:18;;;;;;;1.05;0.47;;;;;;;;;;5056741;28;20016;-74
2021/05/21 13:06:44;;;;;;;0.40;0.30;;;;;;;;;;5068805;28;20433;-75
2021/05/21 13:09:10;;;;;;;1.60;0.40;;;;;;;;;;5061299;28;20021;-74
2021/05/21 13:11:51;;;;;;;0.95;0.55;;;;;;;;;;5051806;28;20021;-74
2021/05/21 13:14:16;;;;;;;1.38;0.40;;;;;;;;;;5053436;28;20384;-74
2021/05/21 13:16:42;;;;;;;1.30;0.50;;;;;;;;;;5066251;28;20021;-75
2021/05/21 13:19:08;;;;;;;0.47;0.47;;;;;;;;;;5054796;28;20032;-75
2021/05/21 13:21:34;;;;;;;1.15;0.50;;;;;;;;;;5065185;28;20028;-75
2021/05/21 13:24:03;;;;;;;0.63;0.47;;;;;;;;;;5063585;28;20040;-74
2021/05/21 13:26:41;;;;;;;0.55;0.50;;;;;;;;;;5052695;28;20119;-73
2021/05/21 13:29:07;;;;;;;0.75;0.43;;;;;;;;;;5058750;28;20040;-75
2021/05/21 13:31:32;;;;;;;1.48;0.50;;;;;;;;;;5067614;28;20032;-75
2021/05/21 13:33:57;;;;;;;0.55;0.47;;;;;;;;;;5058768;28;20130;-75
2021/05/21 13:36:22;;;;;;;1.07;0.57;;;;;;;;;;5056375;28;20056;-74
2021/05/21 13:38:47;;;;;;;0.75;0.43;;;;;;;;;;5038450;28;20299;-76
2021/05/21 13:41:12;;;;;;;1.25;0.60;;;;;;;;;;5058315;28;20101;-74
2021/05/21 13:43:38;;;;;;;1.77;0.65;;;;;;;;;;5053392;28;20044;-74
2021/05/21 13:46:03;;;;;;;0.98;0.60;;;;;;;;;;5063068;28;20048;-73
2021/05/21 13:48:28;;;;;;;1.13;0.40;;;;;;;;;;5059325;28;20036;-73
2021/05/21 13:50:53;;;;;;;3.97;0.77;;;;;;;;;;5059584;28;20483;-73
2021/05/21 13:53:18;;;;;;;0.52;0.52;;;;;;;;;;5049700;28;20416;-74
2021/05/21 13:55:43;;;;;;;0.88;0.40;;;;;;;;;;5033435;28;20112;-73
2021/05/21 13:58:08;;;;;;;0.60;0.40;;;;;;;;;;5052506;28;20021;-73
2021/05/21 14:00:34;;;;;;;0.40;0.32;;;;;;;;;;5049688;28;20086;-73
2021/05/21 14:02:59;;;;;;;0.98;0.50;;;;;;;;;;5063237;28;20029;-73
2021/05/21 14:05:24;;;;;;;0.30;0.30;;;;;;;;;;5038925;28;20098;-73
2021/05/21 14:07:50;;;;;;;1.85;0.47;;;;;;;;;;5050534;28;20025;-73
2021/05/21 14:10:16;;;;;;;0.43;0.30;;;;;;;;;;5055853;28;20349;-72
2021/05/21 14:12:41;;;;;;;0.93;0.40;;;;;;;;;;5033608;28;20071;-74
2021/05/21 14:15:07;;;;;;;2.50;0.50;;;;;;;;;;5050512;28;20522;-70
2021/05/21 14:17:32;;;;;;;1.50;0.45;;;;;;;;;;5056495;28;20041;-73
2021/05/21 14:19:57;;;;;;;0.82;0.50;;;;;;;;;;5033077;28;20090;-73
2021/05/21 14:22:23;;;;;;;0.90;0.50;;;;;;;;;;5053116;28;20617;-74
2021/05/21 14:24:51;;;;;;;0.73;0.50;;;;;;;;;;5056781;28;20035;-74
2021/05/21 14:27:17;;;;;;;0.98;0.30;;;;;;;;;;5044162;28;20017;-72
2021/05/21 14:29:42;;;;;;;1.75;0.60;;;;;;;;;;5036613;28;20025;-73
2021/05/21 14:32:08;;;;;;;0.73;0.50;;;;;;;;;;5051800;28;20025;-74
2021/05/21 14:34:33;;;;;;;0.50;0.50;;;;;;;;;;5064159;28;20481;-73
2021/05/21 14:36:58;;;;;;;1.85;0.50;;;;;;;;;;5058409;28;20062;-73